createdAt,value
2022-08-26T00:01:01.913Z,99480.91
2022-08-26T00:02:03.781Z,99479.81
2022-08-26T00:03:05.712Z,99474.22
2022-08-26T00:04:10.136Z,99476.44
2022-08-26T00:05:11.858Z,99471.69
2022-08-26T00:06:13.819Z,99480.78
2022-08-26T00:07:15.418Z,99481.06
2022-08-26T00:08:18.646Z,99476.28
2022-08-26T00:09:20.887Z,99473.19
2022-08-26T00:10:22.952Z,99466.75
2022-08-26T00:11:28.017Z,99472.06
2022-08-26T00:12:36.021Z,99473.19
2022-08-26T00:13:39.921Z,99474.88
2022-08-26T00:14:48.487Z,99467.16
2022-08-26T00:15:51.208Z,99476.94
2022-08-26T00:16:52.783Z,99479.88
2022-08-26T00:17:56.878Z,99478.22
2022-08-26T00:18:58.572Z,99480.28
2022-08-26T00:20:00.325Z,99474.41
2022-08-26T00:21:06.226Z,99481.69
2022-08-26T00:22:08.301Z,99484.06
2022-08-26T00:23:09.971Z,99478.47
2022-08-26T00:24:11.973Z,99479.31
2022-08-26T00:25:14.918Z,99481.72
2022-08-26T00:26:18.734Z,99469.97
2022-08-26T00:27:22.694Z,99477.09
2022-08-26T00:28:24.765Z,99477.22
2022-08-26T00:29:26.522Z,99464.22
2022-08-26T00:30:30.975Z,99470.66
2022-08-26T00:31:33.170Z,99476.69
2022-08-26T00:32:35.712Z,99475.69
2022-08-26T00:33:39.932Z,99470.50
2022-08-26T00:34:41.764Z,99486.75
2022-08-26T00:35:45.244Z,99478.78
2022-08-26T00:36:47.828Z,99486.06
2022-08-26T00:37:54.217Z,99483.66
2022-08-26T00:38:56.388Z,99483.09
2022-08-26T00:39:58.395Z,99484.38
2022-08-26T00:41:02.649Z,99481.84
2022-08-26T00:42:04.564Z,99480.88
2022-08-26T00:43:08.529Z,99474.84
2022-08-26T00:44:11.369Z,99478.63
2022-08-26T00:45:14.054Z,99479.59
2022-08-26T00:46:26.866Z,99478.75
2022-08-26T00:47:35.302Z,99479.28
2022-08-26T00:48:42.420Z,99481.81
2022-08-26T00:49:47.397Z,99478.44
2022-08-26T00:51:01.938Z,99475.75
2022-08-26T00:52:07.037Z,99481.38
2022-08-26T00:53:24.122Z,99478.72
2022-08-26T00:54:32.691Z,99466.81
2022-08-26T00:55:39.120Z,99477.03
2022-08-26T00:56:49.775Z,99483.75
2022-08-26T00:57:53.481Z,99475.91
2022-08-26T00:58:58.175Z,99471.00
2022-08-26T01:00:03.419Z,99474.66
2022-08-26T01:01:05.777Z,99480.56
2022-08-26T01:02:07.347Z,99479.56
2022-08-26T01:03:25.218Z,99476.19
2022-08-26T01:04:27.440Z,99483.22
2022-08-26T01:05:30.161Z,99479.72
2022-08-26T01:06:32.353Z,99479.84
2022-08-26T01:07:34.911Z,99479.72
2022-08-26T01:08:36.702Z,99471.03
2022-08-26T01:09:38.680Z,99476.50
2022-08-26T01:10:42.127Z,99477.06
2022-08-26T01:11:47.458Z,99473.84
2022-08-26T01:12:55.687Z,99500.28
2022-08-26T01:14:02.065Z,99476.50
2022-08-26T01:15:05.893Z,99480.44
2022-08-26T01:16:12.840Z,99494.69
2022-08-26T01:17:15.219Z,99475.97
2022-08-26T01:18:18.357Z,99472.47
2022-08-26T01:19:32.994Z,99475.97
2022-08-26T01:21:16.329Z,99474.41
2022-08-26T01:22:28.131Z,99476.06
2022-08-26T01:23:40.946Z,99477.50
2022-08-26T01:24:48.101Z,99473.75
2022-08-26T01:25:56.520Z,99474.72
2022-08-26T01:27:01.654Z,99476.28
2022-08-26T01:28:08.195Z,99478.97
2022-08-26T01:29:15.032Z,99479.38
2022-08-26T01:30:17.030Z,99469.03
2022-08-26T01:31:22.423Z,99477.41
2022-08-26T01:32:25.707Z,99477.56
2022-08-26T01:33:42.173Z,99480.06
2022-08-26T01:34:47.270Z,99485.13
2022-08-26T01:35:49.375Z,99481.59
2022-08-26T01:36:57.734Z,99484.69
2022-08-26T01:38:00.643Z,99465.91
2022-08-26T01:39:05.886Z,99476.13
2022-08-26T01:40:14.025Z,99475.53
2022-08-26T01:41:19.866Z,99479.91
2022-08-26T01:42:29.384Z,99476.22
2022-08-26T01:43:32.849Z,99475.94
2022-08-26T01:44:39.919Z,99480.31
2022-08-26T01:45:42.800Z,99477.06
2022-08-26T01:46:46.703Z,99479.19
2022-08-26T01:47:56.748Z,99481.97
2022-08-26T01:49:02.675Z,99481.53
2022-08-26T01:50:10.499Z,99476.66
2022-08-26T01:51:17.420Z,99480.72
2022-08-26T01:52:24.280Z,99478.59
2022-08-26T01:53:30.335Z,99469.50
2022-08-26T01:54:32.536Z,99483.69
2022-08-26T01:55:37.061Z,99487.44
2022-08-26T01:56:39.306Z,99447.00
2022-08-26T01:57:44.242Z,99481.88
2022-08-26T01:58:51.435Z,99489.69
2022-08-26T01:59:57.076Z,99484.63
2022-08-26T02:00:59.055Z,99482.13
2022-08-26T02:02:01.571Z,99485.47
2022-08-26T02:03:17.567Z,99501.72
2022-08-26T02:04:26.592Z,99494.19
2022-08-26T02:05:28.322Z,99491.50
2022-08-26T02:06:31.003Z,99490.97
2022-08-26T02:07:33.321Z,99486.63
2022-08-26T02:08:41.128Z,99498.25
2022-08-26T02:09:43.349Z,99492.53
2022-08-26T02:10:45.088Z,99496.03
2022-08-26T02:11:47.450Z,99496.16
2022-08-26T02:12:50.165Z,99493.78
2022-08-26T02:13:59.675Z,99493.09
2022-08-26T02:15:05.748Z,99497.31
2022-08-26T02:16:08.969Z,99496.72
2022-08-26T02:17:11.125Z,99497.00
2022-08-26T02:18:14.183Z,99501.09
2022-08-26T02:19:23.495Z,99479.25
2022-08-26T02:20:26.568Z,99499.53
2022-08-26T02:21:29.932Z,99494.91
2022-08-26T02:22:33.048Z,99503.75
2022-08-26T02:23:34.696Z,99499.53
2022-08-26T02:25:28.552Z,99506.25
2022-08-26T02:26:30.140Z,99505.84
2022-08-26T02:27:34.069Z,99506.13
2022-08-26T02:29:01.990Z,99505.84
2022-08-26T02:30:21.262Z,99506.53
2022-08-26T02:31:23.787Z,99500.66
2022-08-26T02:32:25.882Z,99505.28
2022-08-26T02:33:29.637Z,99500.38
2022-08-26T02:34:33.231Z,99507.94
2022-08-26T02:35:36.450Z,99511.88
2022-08-26T02:36:38.584Z,99503.47
2022-08-26T02:37:41.906Z,99510.03
2022-08-26T02:38:43.564Z,99501.50
2022-08-26T02:39:48.073Z,99488.56
2022-08-26T02:40:49.815Z,99512.44
2022-08-26T02:41:52.684Z,99504.84
2022-08-26T02:42:55.959Z,99511.66
2022-08-26T02:43:59.088Z,99509.00
2022-08-26T02:45:00.777Z,99509.00
2022-08-26T02:46:02.688Z,99510.16
2022-08-26T02:47:05.220Z,99505.94
2022-08-26T02:48:18.802Z,99505.78
2022-08-26T02:49:21.807Z,99497.38
2022-08-26T02:50:24.171Z,99500.88
2022-08-26T02:51:27.262Z,99503.69
2022-08-26T02:52:29.054Z,99498.63
2022-08-26T02:53:32.054Z,99498.88
2022-08-26T02:54:37.228Z,99504.94
2022-08-26T02:55:40.369Z,99489.38
2022-08-26T02:56:45.513Z,99499.59
2022-08-26T02:57:47.186Z,99509.53
2022-08-26T02:58:48.832Z,99497.19
2022-08-26T02:59:53.590Z,99509.94
2022-08-26T03:00:55.426Z,99508.25
2022-08-26T03:01:57.304Z,99509.19
2022-08-26T03:02:59.426Z,99505.59
2022-08-26T03:04:03.251Z,99504.03
2022-08-26T03:05:05.412Z,99499.38
2022-08-26T03:06:07.074Z,99501.63
2022-08-26T03:07:10.194Z,99507.25
2022-08-26T03:08:11.878Z,99501.50
2022-08-26T03:09:18.507Z,99505.25
2022-08-26T03:10:21.120Z,99514.47
2022-08-26T03:11:23.631Z,99513.88
2022-08-26T03:12:26.251Z,99496.81
2022-08-26T03:13:27.896Z,99500.75
2022-08-26T03:14:29.800Z,99499.75
2022-08-26T03:15:32.217Z,99496.53
2022-08-26T03:16:35.828Z,99495.97
2022-08-26T03:17:38.108Z,99505.75
2022-08-26T03:18:41.723Z,99504.06
2022-08-26T03:19:43.359Z,99506.00
2022-08-26T03:20:46.448Z,99503.75
2022-08-26T03:21:48.426Z,99501.97
2022-08-26T03:22:53.236Z,99503.63
2022-08-26T03:23:58.899Z,99512.28
2022-08-26T03:25:03.729Z,99498.69
2022-08-26T03:26:06.536Z,99495.91
2022-08-26T03:27:08.342Z,99495.19
2022-08-26T03:28:10.076Z,99496.88
2022-08-26T03:29:30.304Z,99505.69
2022-08-26T03:30:45.390Z,99504.28
2022-08-26T03:31:47.461Z,99502.72
2022-08-26T03:32:49.340Z,99502.00
2022-08-26T03:33:51.513Z,99502.97
2022-08-26T03:34:53.955Z,99506.72
2022-08-26T03:35:55.696Z,99500.00
2022-08-26T03:36:58.994Z,99506.16
2022-08-26T03:38:01.960Z,99511.47
2022-08-26T03:39:03.641Z,99509.94
2022-08-26T03:40:08.985Z,99504.72
2022-08-26T03:41:13.562Z,99506.44
2022-08-26T03:42:15.857Z,99506.44
2022-08-26T03:43:17.950Z,99504.22
2022-08-26T03:44:19.704Z,99507.84
2022-08-26T03:45:21.877Z,99496.06
2022-08-26T03:46:23.523Z,99515.81
2022-08-26T03:47:28.446Z,99504.72
2022-08-26T03:48:29.976Z,99499.72
2022-08-26T03:49:32.014Z,99511.28
2022-08-26T03:50:35.802Z,99505.97
2022-08-26T03:51:38.834Z,99510.31
2022-08-26T03:52:44.101Z,99505.28
2022-08-26T03:53:47.644Z,99504.56
2022-08-26T03:54:50.102Z,99512.78
2022-08-26T03:55:52.077Z,99509.56
2022-08-26T03:56:54.049Z,99527.69
2022-08-26T03:57:55.810Z,99510.59
2022-08-26T03:58:57.448Z,99512.53
2022-08-26T04:00:00.207Z,99517.53
2022-08-26T04:01:01.817Z,99515.84
2022-08-26T04:02:03.740Z,99512.88
2022-08-26T04:03:33.115Z,99507.69
2022-08-26T04:04:35.399Z,99504.81
2022-08-26T04:05:37.928Z,99508.91
2022-08-26T04:06:45.014Z,99506.38
2022-08-26T04:07:47.743Z,99506.25
2022-08-26T04:08:50.698Z,99509.50
2022-08-26T04:09:56.994Z,99512.00
2022-08-26T04:10:59.059Z,99513.44
2022-08-26T04:12:00.792Z,99511.00
2022-08-26T04:13:02.466Z,99520.66
2022-08-26T04:14:07.221Z,99522.44
2022-08-26T04:15:12.929Z,99513.78
2022-08-26T04:16:17.398Z,99509.13
2022-08-26T04:17:19.872Z,99526.19
2022-08-26T04:18:31.428Z,99520.91
2022-08-26T04:19:38.606Z,99522.69
2022-08-26T04:20:40.134Z,99523.53
2022-08-26T04:21:41.954Z,99521.16
2022-08-26T04:22:45.249Z,99513.56
2022-08-26T04:23:47.542Z,99518.41
2022-08-26T04:24:49.535Z,99511.38
2022-08-26T04:25:51.540Z,99510.53
2022-08-26T04:26:54.011Z,99508.50
2022-08-26T04:27:55.711Z,99509.00
2022-08-26T04:28:57.246Z,99511.16
2022-08-26T04:30:01.338Z,99492.81
2022-08-26T04:31:03.254Z,99512.06
2022-08-26T04:32:04.900Z,99512.44
2022-08-26T04:33:13.025Z,99504.88
2022-08-26T04:34:16.232Z,99506.09
2022-08-26T04:35:19.439Z,99502.72
2022-08-26T04:36:24.418Z,99511.50
2022-08-26T04:37:26.213Z,99527.66
2022-08-26T04:38:29.199Z,99508.38
2022-08-26T04:39:31.261Z,99510.22
2022-08-26T04:40:33.468Z,99505.16
2022-08-26T04:41:36.728Z,99513.81
2022-08-26T04:42:38.371Z,99517.31
2022-08-26T04:43:40.047Z,99518.03
2022-08-26T04:44:41.647Z,99520.44
2022-08-26T04:45:43.970Z,99519.59
2022-08-26T04:46:45.819Z,99517.91
2022-08-26T04:47:47.525Z,99521.25
2022-08-26T04:48:53.324Z,99519.47
2022-08-26T04:49:55.946Z,99523.53
2022-08-26T04:51:00.182Z,99515.72
2022-08-26T04:52:01.882Z,99515.59
2022-08-26T04:53:04.575Z,99513.69
2022-08-26T04:54:09.101Z,99520.50
2022-08-26T04:55:10.754Z,99519.41
2022-08-26T04:56:13.481Z,99525.69
2022-08-26T04:57:15.400Z,99525.69
2022-08-26T04:58:19.644Z,99517.75
2022-08-26T04:59:21.298Z,99521.34
2022-08-26T05:00:23.602Z,99512.81
2022-08-26T05:01:29.866Z,99524.38
2022-08-26T05:02:31.548Z,99529.81
2022-08-26T05:03:36.169Z,99517.66
2022-08-26T05:04:37.844Z,99529.09
2022-08-26T05:05:44.153Z,99534.41
2022-08-26T05:06:46.697Z,99520.44
2022-08-26T05:07:48.263Z,99521.25
2022-08-26T05:08:51.932Z,99523.91
2022-08-26T05:09:54.653Z,99527.41
2022-08-26T05:10:56.632Z,99506.09
2022-08-26T05:11:58.327Z,99526.56
2022-08-26T05:13:00.287Z,99529.97
2022-08-26T05:14:02.520Z,99527.41
2022-08-26T05:15:04.594Z,99532.72
2022-08-26T05:16:11.635Z,99530.06
2022-08-26T05:17:14.965Z,99522.09
2022-08-26T05:18:20.709Z,99533.19
2022-08-26T05:19:23.626Z,99537.16
2022-08-26T05:20:26.061Z,99537.72
2022-08-26T05:21:29.057Z,99534.13
2022-08-26T05:22:30.757Z,99531.34
2022-08-26T05:23:35.090Z,99528.31
2022-08-26T05:24:37.241Z,99537.59
2022-08-26T05:25:42.028Z,99537.78
2022-08-26T05:26:44.644Z,99542.88
2022-08-26T05:27:46.908Z,99531.28
2022-08-26T05:28:49.203Z,99541.41
2022-08-26T05:29:54.417Z,99537.13
2022-08-26T05:30:57.166Z,99543.59
2022-08-26T05:31:58.843Z,99541.28
2022-08-26T05:33:01.552Z,99547.19
2022-08-26T05:34:04.639Z,99508.34
2022-08-26T05:35:08.863Z,99554.63
2022-08-26T05:36:15.110Z,99551.97
2022-08-26T05:37:16.965Z,99552.66
2022-08-26T05:38:21.063Z,99556.50
2022-08-26T05:39:23.433Z,99566.84
2022-08-26T05:40:25.449Z,99561.25
2022-08-26T05:41:36.489Z,99560.31
2022-08-26T05:42:40.276Z,99555.84
2022-08-26T05:43:42.118Z,99557.25
2022-08-26T05:44:55.481Z,99558.69
2022-08-26T05:46:06.984Z,99551.31
2022-08-26T05:47:08.618Z,99558.34
2022-08-26T05:48:10.428Z,99561.44
2022-08-26T05:49:14.756Z,99560.09
2022-08-26T05:50:21.871Z,99563.19
2022-08-26T05:51:26.301Z,99562.81
2022-08-26T05:52:27.967Z,99559.75
2022-08-26T05:53:29.650Z,99568.88
2022-08-26T05:54:32.467Z,99564.72
2022-08-26T05:55:34.978Z,99559.00
2022-08-26T05:56:37.196Z,99565.59
2022-08-26T05:57:42.866Z,99571.22
2022-08-26T05:58:44.659Z,99564.63
2022-08-26T05:59:47.928Z,99558.41
2022-08-26T06:01:02.324Z,99554.47
2022-08-26T06:02:05.889Z,99566.25
2022-08-26T06:03:08.344Z,99561.38
2022-08-26T06:04:10.919Z,99569.53
2022-08-26T06:05:12.716Z,99564.22
2022-08-26T06:06:27.285Z,99565.47
2022-08-26T06:07:49.634Z,99565.50
2022-08-26T06:08:52.594Z,99567.03
2022-08-26T06:10:01.628Z,99562.25
2022-08-26T06:11:18.658Z,99574.59
2022-08-26T06:12:23.248Z,99566.91
2022-08-26T06:13:26.842Z,99566.75
2022-08-26T06:14:28.602Z,99558.25
2022-08-26T06:15:30.480Z,99538.16
2022-08-26T06:16:35.054Z,99570.06
2022-08-26T06:17:36.826Z,99572.41
2022-08-26T06:18:40.899Z,99569.72
2022-08-26T06:19:42.488Z,99574.16
2022-08-26T06:20:54.614Z,99567.72
2022-08-26T06:22:22.304Z,99576.75
2022-08-26T06:23:46.339Z,99569.94
2022-08-26T06:25:06.516Z,99576.59
2022-08-26T06:26:11.063Z,99579.53
2022-08-26T06:27:14.008Z,99576.13
2022-08-26T06:28:17.359Z,99582.38
2022-08-26T06:29:24.321Z,99581.78
2022-08-26T06:30:26.573Z,99568.97
2022-08-26T06:31:28.769Z,99584.69
2022-08-26T06:32:30.799Z,99563.19
2022-08-26T06:33:32.528Z,99581.13
2022-08-26T06:34:36.839Z,99578.25
2022-08-26T06:35:40.501Z,99580.97
2022-08-26T06:36:44.804Z,99576.66
2022-08-26T06:37:48.255Z,99579.84
2022-08-26T06:38:51.146Z,99574.78
2022-08-26T06:39:52.780Z,99585.00
2022-08-26T06:40:54.967Z,99583.00
2022-08-26T06:41:56.902Z,99581.84
2022-08-26T06:42:58.559Z,99577.47
2022-08-26T06:44:01.356Z,99576.88
2022-08-26T06:45:03.641Z,99588.66
2022-08-26T06:46:12.398Z,99572.59
2022-08-26T06:47:14.208Z,99577.69
2022-08-26T06:48:20.249Z,99575.75
2022-08-26T06:49:25.815Z,99592.72
2022-08-26T06:50:29.498Z,99589.22
2022-08-26T06:51:34.579Z,99587.94
2022-08-26T06:52:36.364Z,99582.88
2022-08-26T06:53:38.948Z,99582.53
2022-08-26T06:54:43.217Z,99591.16
2022-08-26T06:55:46.845Z,99585.22
2022-08-26T06:56:53.680Z,99580.16
2022-08-26T06:57:56.574Z,99589.06
2022-08-26T06:58:58.163Z,99578.06
2022-08-26T06:59:59.757Z,99573.75
2022-08-26T07:01:09.079Z,99592.50
2022-08-26T07:02:13.773Z,99582.19
2022-08-26T07:03:15.587Z,99583.63
2022-08-26T07:04:20.291Z,99582.44
2022-08-26T07:05:25.613Z,99589.94
2022-08-26T07:06:28.344Z,99582.66
2022-08-26T07:07:29.991Z,99585.94
2022-08-26T07:08:31.663Z,99583.47
2022-08-26T07:09:35.319Z,99583.00
2022-08-26T07:10:38.703Z,99590.34
2022-08-26T07:11:40.648Z,99581.84
2022-08-26T07:12:43.256Z,99584.03
2022-08-26T07:13:50.505Z,99579.91
2022-08-26T07:14:53.513Z,99578.69
2022-08-26T07:15:58.018Z,99580.41
2022-08-26T07:17:09.209Z,99582.75
2022-08-26T07:18:13.895Z,99571.03
2022-08-26T07:19:17.503Z,99576.13
2022-08-26T07:20:30.357Z,99577.50
2022-08-26T07:21:32.015Z,99587.66
2022-08-26T07:22:34.449Z,99587.03
2022-08-26T07:23:37.034Z,99594.81
2022-08-26T07:24:42.535Z,99584.91
2022-08-26T07:25:44.477Z,99591.91
2022-08-26T07:26:46.018Z,99585.47
2022-08-26T07:27:54.253Z,99586.28
2022-08-26T07:28:57.966Z,99589.00
2022-08-26T07:30:02.045Z,99587.72
2022-08-26T07:31:06.161Z,99583.28
2022-08-26T07:32:13.868Z,99594.84
2022-08-26T07:33:16.765Z,99591.53
2022-08-26T07:34:18.687Z,99581.91
2022-08-26T07:35:20.357Z,99588.84
2022-08-26T07:36:23.228Z,99586.75
2022-08-26T07:37:24.953Z,99581.97
2022-08-26T07:38:26.832Z,99584.16
2022-08-26T07:39:31.879Z,99585.50
2022-08-26T07:40:34.478Z,99577.94
2022-08-26T07:41:36.638Z,99587.47
2022-08-26T07:42:38.246Z,99581.94
2022-08-26T07:43:40.410Z,99595.25
2022-08-26T07:44:45.262Z,99589.97
2022-08-26T07:45:47.271Z,99583.72
2022-08-26T07:46:53.211Z,99586.22
2022-08-26T07:47:55.845Z,99587.28
2022-08-26T07:48:58.541Z,99582.44
2022-08-26T07:50:00.202Z,99583.41
2022-08-26T07:51:02.396Z,99586.03
2022-08-26T07:52:04.943Z,99580.00
2022-08-26T07:53:06.666Z,99585.19
2022-08-26T07:54:12.253Z,99590.00
2022-08-26T07:55:15.195Z,99588.50
2022-08-26T07:56:17.036Z,99579.56
2022-08-26T07:57:19.142Z,99581.84
2022-08-26T07:58:21.104Z,99580.59
2022-08-26T07:59:23.336Z,99579.38
2022-08-26T08:00:25.589Z,99576.72
2022-08-26T08:01:29.642Z,99589.75
2022-08-26T08:02:32.907Z,99582.41
2022-08-26T08:03:36.463Z,99580.16
2022-08-26T08:04:38.107Z,99586.25
2022-08-26T08:05:41.274Z,99581.97
2022-08-26T08:06:44.674Z,99584.97
2022-08-26T08:07:46.549Z,99583.47
2022-08-26T08:08:48.275Z,99586.09
2022-08-26T08:09:52.549Z,99548.38
2022-08-26T08:10:54.291Z,99587.09
2022-08-26T08:11:55.900Z,99583.34
2022-08-26T08:12:58.380Z,99587.28
2022-08-26T08:14:02.841Z,99592.63
2022-08-26T08:15:13.900Z,99594.00
2022-08-26T08:16:15.710Z,99582.31
2022-08-26T08:17:17.314Z,99582.94
2022-08-26T08:18:20.952Z,99542.13
2022-08-26T08:19:23.948Z,99583.63
2022-08-26T08:20:35.081Z,99584.75
2022-08-26T08:21:38.615Z,99589.38
2022-08-26T08:22:40.896Z,99584.25
2022-08-26T08:23:42.451Z,99581.50
2022-08-26T08:24:44.012Z,99597.97
2022-08-26T08:25:45.673Z,99583.97
2022-08-26T08:26:47.601Z,99585.59
2022-08-26T08:27:49.215Z,99583.41
2022-08-26T08:28:54.980Z,99591.78
2022-08-26T08:29:56.812Z,99581.88
2022-08-26T08:30:58.535Z,99582.53
2022-08-26T08:32:01.141Z,99585.91
2022-08-26T08:33:04.549Z,99589.34
2022-08-26T08:34:07.323Z,99584.84
2022-08-26T08:35:11.723Z,99576.84
2022-08-26T08:36:18.428Z,99593.03
2022-08-26T08:37:23.442Z,99603.28
2022-08-26T08:38:25.919Z,99587.19
2022-08-26T08:39:27.986Z,99591.13
2022-08-26T08:40:29.559Z,99583.34
2022-08-26T08:41:43.575Z,99587.06
2022-08-26T08:42:48.414Z,99583.22
2022-08-26T08:43:51.808Z,99582.56
2022-08-26T08:44:57.320Z,99575.66
2022-08-26T08:46:05.854Z,99572.25
2022-08-26T08:47:30.603Z,99579.97
2022-08-26T08:48:37.882Z,99577.25
2022-08-26T08:49:40.270Z,99581.81
2022-08-26T08:50:52.167Z,99579.34
2022-08-26T08:52:00.329Z,99588.31
2022-08-26T08:53:11.156Z,99577.19
2022-08-26T08:54:13.019Z,99587.75
2022-08-26T08:55:18.201Z,99577.16
2022-08-26T08:56:32.310Z,99581.63
2022-08-26T08:57:53.872Z,99574.47
2022-08-26T08:59:25.276Z,99574.63
2022-08-26T09:00:30.770Z,99573.69
2022-08-26T09:01:52.567Z,99570.47
2022-08-26T09:03:10.846Z,99578.59
2022-08-26T09:04:28.929Z,99582.59
2022-08-26T09:05:40.234Z,99586.97
2022-08-26T09:06:42.863Z,99578.75
2022-08-26T09:08:04.937Z,99571.88
2022-08-26T09:09:14.195Z,99583.03
2022-08-26T09:10:36.428Z,99577.31
2022-08-26T09:11:38.776Z,99579.81
2022-08-26T09:12:40.405Z,99579.91
2022-08-26T09:13:49.223Z,99584.78
2022-08-26T09:14:51.985Z,99585.03
2022-08-26T09:16:07.420Z,99581.59
2022-08-26T09:17:28.488Z,99585.38
2022-08-26T09:18:34.141Z,99583.59
2022-08-26T09:19:49.480Z,99583.50
2022-08-26T09:21:11.612Z,99574.94
2022-08-26T09:22:29.039Z,99579.72
2022-08-26T09:23:34.024Z,99569.44
2022-08-26T09:24:41.622Z,99577.69
2022-08-26T09:25:49.079Z,99576.66
2022-08-26T09:26:52.696Z,99573.06
2022-08-26T09:27:54.542Z,99569.75
2022-08-26T09:29:02.883Z,99571.47
2022-08-26T09:30:06.397Z,99546.94
2022-08-26T09:31:21.547Z,99571.09
2022-08-26T09:32:26.506Z,99564.53
2022-08-26T09:33:31.362Z,99571.75
2022-08-26T09:34:33.188Z,99578.91
2022-08-26T09:35:48.830Z,99568.56
2022-08-26T09:36:51.720Z,99560.25
2022-08-26T09:37:53.415Z,99564.56
2022-08-26T09:38:56.181Z,99568.56
2022-08-26T09:40:13.612Z,99573.28
2022-08-26T09:41:35.497Z,99563.72
2022-08-26T09:42:37.100Z,99559.06
2022-08-26T09:43:38.893Z,99545.91
2022-08-26T09:44:58.316Z,99556.69
2022-08-26T09:46:19.401Z,99564.03
2022-08-26T09:47:26.497Z,99550.00
2022-08-26T09:48:36.612Z,99513.16
2022-08-26T09:49:40.355Z,99559.66
2022-08-26T09:50:56.098Z,99554.59
2022-08-26T09:52:15.556Z,99548.31
2022-08-26T09:53:33.248Z,99551.44
2022-08-26T09:54:35.680Z,99556.50
2022-08-26T09:55:39.620Z,99551.56
2022-08-26T09:56:41.249Z,99551.63
2022-08-26T09:57:51.200Z,99548.81
2022-08-26T09:58:54.889Z,99483.38
2022-08-26T09:59:56.535Z,99548.41
2022-08-26T10:01:01.511Z,99544.25
2022-08-26T10:02:34.240Z,99548.00
2022-08-26T10:03:38.986Z,99543.34
2022-08-26T10:04:40.762Z,99536.59
2022-08-26T10:05:44.175Z,99539.44
2022-08-26T10:07:01.126Z,99525.91
2022-08-26T10:08:19.939Z,99532.75
2022-08-26T10:09:26.369Z,99527.38
2022-08-26T10:10:38.687Z,99533.66
2022-08-26T10:11:50.845Z,99529.69
2022-08-26T10:13:07.839Z,99530.97
2022-08-26T10:14:31.787Z,99526.84
2022-08-26T10:15:50.635Z,99519.34
2022-08-26T10:17:03.365Z,99523.50
2022-08-26T10:18:20.265Z,99515.56
2022-08-26T10:19:29.260Z,99517.59
2022-08-26T10:20:57.048Z,99515.94
2022-08-26T10:22:05.887Z,99513.81
2022-08-26T10:23:09.441Z,99511.31
2022-08-26T10:24:20.820Z,99497.91
2022-08-26T10:25:29.040Z,99510.28
2022-08-26T10:26:37.744Z,99511.78
2022-08-26T10:27:52.766Z,99493.94
2022-08-26T10:29:10.204Z,99509.38
2022-08-26T10:30:24.472Z,99499.69
2022-08-26T10:31:27.499Z,99504.28
2022-08-26T10:32:41.809Z,99506.47
2022-08-26T10:33:43.501Z,99498.81
2022-08-26T10:34:45.604Z,99465.31
2022-08-26T10:36:07.654Z,99509.97
2022-08-26T10:37:21.448Z,99509.81
2022-08-26T10:38:32.444Z,99489.94
2022-08-26T10:39:53.061Z,99509.53
2022-08-26T10:41:02.851Z,99501.22
2022-08-26T10:42:28.898Z,99498.72
2022-08-26T10:43:45.044Z,99509.97
2022-08-26T10:44:50.222Z,99497.06
2022-08-26T10:46:03.155Z,99498.56
2022-08-26T10:47:59.218Z,99504.41
2022-08-26T10:49:10.602Z,99500.69
2022-08-26T10:50:12.811Z,99501.09
2022-08-26T10:51:25.673Z,99494.44
2022-08-26T10:52:46.756Z,99495.66
2022-08-26T10:54:01.730Z,99501.28
2022-08-26T10:55:27.364Z,99494.13
2022-08-26T10:57:10.580Z,99498.47
2022-08-26T10:58:49.492Z,99491.91
2022-08-26T11:00:00.951Z,99483.78
2022-08-26T11:01:40.845Z,99480.63
2022-08-26T11:02:48.253Z,99484.16
2022-08-26T11:04:05.283Z,99484.56
2022-08-26T11:05:16.812Z,99483.50
2022-08-26T11:06:18.745Z,99475.81
2022-08-26T11:07:33.534Z,99474.56
2022-08-26T11:08:45.035Z,99486.03
2022-08-26T11:09:47.802Z,99477.94
2022-08-26T11:11:00.410Z,99469.16
2022-08-26T11:12:09.922Z,99483.47
2022-08-26T11:13:12.117Z,99487.06
2022-08-26T11:14:29.299Z,99482.78
2022-08-26T11:15:31.756Z,99485.88
2022-08-26T11:16:43.555Z,99475.59
2022-08-26T11:17:45.829Z,99474.03
2022-08-26T11:18:48.726Z,99479.00
2022-08-26T11:20:01.558Z,99481.09
2022-08-26T11:21:44.035Z,99474.78
2022-08-26T11:22:47.942Z,99474.03
2022-08-26T11:23:50.454Z,99466.19
2022-08-26T11:24:52.438Z,99472.19
2022-08-26T11:26:09.514Z,99474.75
2022-08-26T11:27:35.145Z,99472.22
2022-08-26T11:28:45.793Z,99467.50
2022-08-26T11:30:03.977Z,99468.28
2022-08-26T11:31:10.678Z,99469.44
2022-08-26T11:32:48.777Z,99461.78
2022-08-26T11:33:59.481Z,99464.44
2022-08-26T11:35:05.987Z,99458.16
2022-08-26T11:36:12.495Z,99466.13
2022-08-26T11:37:17.902Z,99443.88
2022-08-26T11:38:29.489Z,99459.47
2022-08-26T11:39:54.037Z,99454.44
2022-08-26T11:41:21.953Z,99453.88
2022-08-26T11:42:36.838Z,99440.59
2022-08-26T11:43:40.663Z,99446.19
2022-08-26T11:44:49.312Z,99447.06
2022-08-26T11:46:00.174Z,99444.31
2022-08-26T11:47:03.115Z,99441.59
2022-08-26T11:48:38.555Z,99447.66
2022-08-26T11:49:41.832Z,99438.28
2022-08-26T11:50:54.175Z,99432.19
2022-08-26T11:52:20.869Z,99437.94
2022-08-26T11:53:23.659Z,99440.75
2022-08-26T11:54:30.794Z,99433.91
2022-08-26T11:55:43.346Z,99426.66
2022-08-26T11:56:48.711Z,99434.94
2022-08-26T11:57:55.206Z,99438.00
2022-08-26T11:58:59.864Z,99433.97
2022-08-26T12:00:02.928Z,99430.38
2022-08-26T12:01:09.621Z,99385.13
2022-08-26T12:02:16.017Z,99433.97
2022-08-26T12:03:23.587Z,99431.72
2022-08-26T12:04:30.196Z,99432.72
2022-08-26T12:05:42.360Z,99444.06
2022-08-26T12:06:51.557Z,99431.56
2022-08-26T12:07:55.398Z,99427.53
2022-08-26T12:08:59.989Z,99437.16
2022-08-26T12:10:05.208Z,99415.38
2022-08-26T12:11:12.020Z,99431.91
2022-08-26T12:12:17.080Z,99434.47
2022-08-26T12:13:26.345Z,99433.66
2022-08-26T12:14:28.595Z,99437.84
2022-08-26T12:15:32.191Z,99439.28
2022-08-26T12:16:40.239Z,99449.47
2022-08-26T12:17:43.237Z,99429.06
2022-08-26T12:18:45.043Z,99446.53
2022-08-26T12:19:47.635Z,99442.72
2022-08-26T12:20:53.832Z,99442.56
2022-08-26T12:22:07.342Z,99445.28
2022-08-26T12:23:09.181Z,99445.88
2022-08-26T12:24:17.108Z,99446.91
2022-08-26T12:25:23.783Z,99458.53
2022-08-26T12:26:34.903Z,99457.88
2022-08-26T12:27:45.364Z,99453.22
2022-08-26T12:28:59.908Z,99451.16
2022-08-26T12:30:12.499Z,99453.66
2022-08-26T12:31:34.209Z,99452.38
2022-08-26T12:32:57.290Z,99450.69
2022-08-26T12:34:02.546Z,99442.56
2022-08-26T12:36:08.775Z,99449.63
2022-08-26T12:37:13.091Z,99443.81
2022-08-26T12:38:15.094Z,99439.03
2022-08-26T12:39:30.837Z,99437.78
2022-08-26T12:40:35.534Z,99435.53
2022-08-26T12:41:43.779Z,99414.91
2022-08-26T12:42:45.527Z,99389.53
2022-08-26T12:43:47.261Z,99426.56
2022-08-26T12:45:06.593Z,99423.84
2022-08-26T12:46:24.632Z,99427.09
2022-08-26T12:47:44.236Z,99416.28
2022-08-26T12:48:49.269Z,99416.84
2022-08-26T12:50:01.244Z,99413.91
2022-08-26T12:51:03.675Z,99408.34
2022-08-26T12:52:09.482Z,99414.75
2022-08-26T12:53:11.181Z,99404.06
2022-08-26T12:54:15.961Z,99403.69
2022-08-26T12:55:31.702Z,99400.53
2022-08-26T12:56:39.445Z,99403.28
2022-08-26T12:57:41.115Z,99396.63
2022-08-26T12:58:43.678Z,99399.13
2022-08-26T12:59:45.233Z,99399.13
2022-08-26T13:00:51.668Z,99392.22
2022-08-26T13:01:54.231Z,99391.38